Time;durP1;ratioP1;P1;durP2;ratioP2;P2;SDS_P1;SDS_P2;PMS_P1;PMS_P2;Temp;Humidity;BMP_temperature;BMP_pressure;BME280_temperature;BME280_humidity;BME280_pressure;Samples;Min_cycle;Max_cycle;Signal;HPM_P1;HPM_P2
2022/11/24 00:00:51;;;;;;;2.03;1.17;;;17.50;70.60;;;;;;4975533;28;20304;-69
2022/11/24 00:03:17;;;;;;;2.30;1.00;;;17.50;70.60;;;;;;4992078;28;20233;-69
2022/11/24 00:05:43;;;;;;;2.83;1.17;;;17.50;70.50;;;;;;4975649;28;20240;-70
2022/11/24 00:08:10;;;;;;;2.78;1.30;;;17.50;70.50;;;;;;4975678;28;20181;-69
2022/11/24 00:10:36;;;;;;;1.90;1.20;;;17.50;70.50;;;;;;4975367;28;20217;-69
2022/11/24 00:13:01;;;;;;;1.45;0.90;;;17.50;70.60;;;;;;4975507;28;20198;-69
2022/11/24 00:15:27;;;;;;;2.08;1.13;;;17.50;70.60;;;;;;4975700;28;20193;-69
2022/11/24 00:17:53;;;;;;;2.05;1.10;;;17.50;70.60;;;;;;4975415;28;20209;-70
2022/11/24 00:20:19;;;;;;;3.25;1.00;;;17.50;70.60;;;;;;4975540;28;20348;-69
2022/11/24 00:22:44;;;;;;;1.60;0.98;;;17.50;70.50;;;;;;4975544;28;20185;-69
2022/11/24 00:25:10;;;;;;;2.17;1.45;;;17.40;70.50;;;;;;4988088;28;20271;-70
2022/11/24 00:27:36;;;;;;;2.05;1.00;;;17.50;70.60;;;;;;4994789;28;20192;-70
2022/11/24 00:30:02;;;;;;;3.22;1.30;;;17.50;70.60;;;;;;4994828;28;20215;-69
2022/11/24 00:32:28;;;;;;;1.60;1.20;;;17.50;70.50;;;;;;4994625;28;20347;-70
2022/11/24 00:34:54;;;;;;;3.30;1.15;;;17.50;70.50;;;;;;4978493;28;20833;-69
2022/11/24 00:37:20;;;;;;;3.05;1.30;;;17.50;70.50;;;;;;4994454;28;20312;-69
2022/11/24 00:39:46;;;;;;;1.23;0.95;;;17.50;70.60;;;;;;4994141;28;20213;-69
2022/11/24 00:42:13;;;;;;;1.70;1.05;;;17.50;70.60;;;;;;4994799;28;20246;-70
2022/11/24 00:44:39;;;;;;;2.28;1.15;;;17.50;70.50;;;;;;4995747;28;20177;-69
2022/11/24 00:47:05;;;;;;;1.35;1.17;;;17.50;70.60;;;;;;4994760;28;20203;-69
2022/11/24 00:49:30;;;;;;;1.30;0.90;;;17.50;70.50;;;;;;4994275;28;20224;-69
2022/11/24 00:51:56;;;;;;;2.53;1.27;;;17.50;70.40;;;;;;4994307;28;20181;-69
2022/11/24 00:54:22;;;;;;;2.55;1.30;;;17.50;70.50;;;;;;4994357;28;20192;-69
2022/11/24 00:56:48;;;;;;;1.63;0.95;;;17.50;70.40;;;;;;4994155;28;20205;-70
2022/11/24 00:59:13;;;;;;;2.92;1.33;;;17.50;70.40;;;;;;4994083;28;20177;-69
2022/11/24 01:01:40;;;;;;;1.92;1.13;;;17.50;70.20;;;;;;4994038;28;20173;-69
2022/11/24 01:04:06;;;;;;;2.85;1.20;;;17.50;70.30;;;;;;4994128;28;20192;-69
2022/11/24 01:06:34;;;;;;;2.13;0.90;;;17.50;70.20;;;;;;4995322;28;20227;-68
2022/11/24 01:09:01;;;;;;;1.50;1.00;;;17.40;70.10;;;;;;4977796;28;20200;-70
2022/11/24 01:14:20;;;;;;;2.35;1.40;;;17.50;70.50;;;;;;5010598;28;20180;-69
2022/11/24 01:16:45;;;;;;;2.20;1.13;;;17.50;70.40;;;;;;4990792;28;20205;-69
2022/11/24 01:19:11;;;;;;;2.72;1.30;;;17.50;70.40;;;;;;4958244;28;20499;-70
2022/11/24 01:21:37;;;;;;;2.45;1.60;;;17.50;70.40;;;;;;4974297;28;20188;-70
2022/11/24 01:24:03;;;;;;;1.48;1.10;;;17.50;70.30;;;;;;4958159;28;20193;-69
2022/11/24 01:26:29;;;;;;;1.25;1.00;;;17.40;70.30;;;;;;4957968;28;20186;-70
2022/11/24 01:28:56;;;;;;;1.70;1.35;;;17.40;70.20;;;;;;4975488;28;20205;-69
2022/11/24 01:31:24;;;;;;;1.58;1.00;;;17.50;70.40;;;;;;4973861;28;20201;-69
2022/11/24 01:33:50;;;;;;;1.85;1.13;;;17.50;70.30;;;;;;4975354;28;20645;-69
2022/11/24 01:36:16;;;;;;;2.50;1.42;;;17.40;70.10;;;;;;4958127;28;20181;-70
2022/11/24 01:38:42;;;;;;;1.83;1.20;;;17.50;70.20;;;;;;4958021;28;20192;-69
2022/11/24 01:41:12;;;;;;;2.45;1.02;;;17.50;70.20;;;;;;4973645;28;20737;-70
2022/11/24 01:43:38;;;;;;;1.10;1.00;;;17.50;70.20;;;;;;4974089;28;20190;-69
2022/11/24 01:46:47;;;;;;;2.58;1.13;;;17.50;70.20;;;;;;4974226;28;20253;-70
2022/11/24 01:49:24;;;;;;;2.15;1.40;;;17.40;70.10;;;;;;4957586;28;20205;-69
2022/11/24 01:52:20;;;;;;;1.50;0.88;;;17.40;70.10;;;;;;4973958;28;20264;-69
2022/11/24 01:54:57;;;;;;;2.00;1.00;;;17.50;70.30;;;;;;4969987;28;20198;-69
2022/11/24 01:57:52;;;;;;;2.22;1.27;;;17.50;70.20;;;;;;4985969;28;20204;-69
2022/11/24 02:00:18;;;;;;;2.45;1.20;;;17.50;70.20;;;;;;4998463;28;20200;-69
2022/11/24 02:02:44;;;;;;;1.55;1.20;;;17.50;70.20;;;;;;4993354;28;20211;-69
2022/11/24 02:05:17;;;;;;;1.23;1.00;;;17.40;70.10;;;;;;5009550;28;20192;-70
2022/11/24 02:07:44;;;;;;;1.27;1.02;;;17.40;70.10;;;;;;4976707;28;20193;-69
2022/11/24 02:10:13;;;;;;;1.15;0.95;;;17.40;70.10;;;;;;4992720;28;20319;-69
2022/11/24 02:12:44;;;;;;;1.77;1.25;;;17.50;70.20;;;;;;4993167;28;20185;-69
2022/11/24 02:15:11;;;;;;;2.42;1.13;;;17.40;70.20;;;;;;4976930;28;20196;-69
2022/11/24 02:17:37;;;;;;;1.23;1.05;;;17.40;70.10;;;;;;4976685;28;20213;-69
2022/11/24 02:20:09;;;;;;;2.38;1.33;;;17.50;70.20;;;;;;4992823;28;20205;-69
2022/11/24 02:22:52;;;;;;;1.23;1.00;;;17.40;70.10;;;;;;4992632;28;20693;-69
2022/11/24 02:25:30;;;;;;;1.65;1.17;;;17.40;70.10;;;;;;5009197;28;20200;-70
2022/11/24 02:27:59;;;;;;;1.65;1.20;;;17.40;70.10;;;;;;4993812;28;20317;-70
2022/11/24 02:30:25;;;;;;;2.17;1.40;;;17.40;70.10;;;;;;4976390;28;20213;-68
2022/11/24 02:32:51;;;;;;;2.13;1.10;;;17.40;70.10;;;;;;4976300;28;20192;-69
2022/11/24 02:35:18;;;;;;;2.85;1.15;;;17.40;70.10;;;;;;4992473;28;20181;-70
2022/11/24 02:37:43;;;;;;;2.28;1.25;;;17.40;70.10;;;;;;4992494;28;20221;-69
2022/11/24 02:40:15;;;;;;;1.63;1.20;;;17.40;70.10;;;;;;4976348;28;20220;-69
2022/11/24 02:42:45;;;;;;;1.83;1.10;;;17.40;70.10;;;;;;4976167;28;20185;-69
2022/11/24 02:45:15;;;;;;;1.67;1.10;;;17.40;70.10;;;;;;4992417;28;20604;-69
2022/11/24 02:47:41;;;;;;;2.30;1.30;;;17.40;70.10;;;;;;4993380;28;20193;-69
2022/11/24 02:52:43;;;;;;;1.10;0.98;;;17.40;70.10;;;;;;5030909;28;20214;-68
2022/11/24 02:55:08;;;;;;;2.13;0.93;;;17.40;70.10;;;;;;5014578;28;20195;-68
2022/11/24 02:57:34;;;;;;;1.50;1.30;;;17.40;70.10;;;;;;5031628;28;20214;-68
2022/11/24 03:00:00;;;;;;;1.73;1.40;;;17.50;70.20;;;;;;5014615;28;20209;-68
2022/11/24 03:02:25;;;;;;;1.48;1.35;;;17.40;70.10;;;;;;5014724;28;20555;-68
2022/11/24 03:04:51;;;;;;;3.38;1.55;;;17.40;70.10;;;;;;5015195;28;20183;-68
2022/11/24 03:07:17;;;;;;;3.05;1.83;;;17.50;70.20;;;;;;5015009;28;20179;-68
2022/11/24 03:09:42;;;;;;;1.80;1.40;;;17.40;70.10;;;;;;5032364;28;20168;-69
2022/11/24 03:12:08;;;;;;;2.33;1.50;;;17.40;70.10;;;;;;5032403;28;20258;-68
2022/11/24 03:14:34;;;;;;;3.10;1.63;;;17.40;70.10;;;;;;5030812;28;20202;-69
2022/11/24 03:17:00;;;;;;;1.77;1.40;;;17.40;70.10;;;;;;5031255;28;20277;-68
2022/11/24 03:19:25;;;;;;;2.78;1.60;;;17.40;70.10;;;;;;5014788;28;20667;-68
2022/11/24 03:21:51;;;;;;;2.58;1.52;;;17.40;70.10;;;;;;5014530;28;20278;-68
2022/11/24 03:24:17;;;;;;;2.20;1.38;;;17.40;70.10;;;;;;5030788;28;20630;-67
2022/11/24 03:26:42;;;;;;;1.90;1.40;;;17.40;70.10;;;;;;5030906;28;20195;-68
2022/11/24 03:29:08;;;;;;;2.78;1.30;;;17.40;70.10;;;;;;5014808;28;20190;-68
2022/11/24 03:31:34;;;;;;;1.67;1.20;;;17.40;70.10;;;;;;5012819;28;20227;-68
2022/11/24 03:34:00;;;;;;;1.27;1.17;;;17.40;70.10;;;;;;4994827;28;20250;-68
2022/11/24 03:36:25;;;;;;;2.08;1.50;;;17.40;70.10;;;;;;5011350;28;20259;-68
2022/11/24 03:38:51;;;;;;;1.75;1.35;;;17.40;70.10;;;;;;5011186;28;20648;-68
2022/11/24 03:41:17;;;;;;;2.58;1.63;;;17.40;70.10;;;;;;5010931;28;20195;-68
2022/11/24 03:43:43;;;;;;;2.25;1.63;;;17.40;70.10;;;;;;5011436;28;20532;-68
2022/11/24 03:46:10;;;;;;;2.20;1.50;;;17.40;70.10;;;;;;5012293;28;20187;-68
2022/11/24 03:48:36;;;;;;;2.47;1.60;;;17.40;70.10;;;;;;5012258;28;20271;-68
2022/11/24 03:51:02;;;;;;;2.13;1.60;;;17.40;70.10;;;;;;5010845;28;20208;-68
2022/11/24 03:53:30;;;;;;;2.03;1.50;;;17.40;70.10;;;;;;4994906;28;20187;-68
2022/11/24 03:55:56;;;;;;;3.08;1.55;;;17.40;70.10;;;;;;5011177;28;20193;-68
2022/11/24 03:58:22;;;;;;;1.88;1.30;;;17.40;70.10;;;;;;5010960;28;20231;-68
2022/11/24 04:00:49;;;;;;;2.05;1.27;;;17.40;70.10;;;;;;5011083;28;20204;-68
2022/11/24 04:03:16;;;;;;;1.63;1.13;;;17.40;70.10;;;;;;5011098;28;20234;-68
2022/11/24 04:05:41;;;;;;;1.65;1.30;;;17.40;70.10;;;;;;5010838;28;20278;-68
2022/11/24 04:08:07;;;;;;;1.42;1.20;;;17.40;70.10;;;;;;4997716;28;20187;-68
2022/11/24 04:10:35;;;;;;;2.35;1.10;;;17.40;70.10;;;;;;5013842;28;20211;-68
2022/11/24 04:13:13;;;;;;;1.55;1.10;;;17.40;70.10;;;;;;5014570;28;20176;-68
2022/11/24 04:15:40;;;;;;;1.48;1.00;;;17.40;70.10;;;;;;5017744;28;20591;-68
2022/11/24 04:18:07;;;;;;;2.63;1.30;;;17.40;70.10;;;;;;5035454;28;20195;-68
2022/11/24 04:20:34;;;;;;;1.55;1.20;;;17.40;70.10;;;;;;5017453;28;20580;-68
2022/11/24 04:22:59;;;;;;;2.38;1.42;;;17.40;70.10;;;;;;5017987;28;20183;-68
2022/11/24 04:25:26;;;;;;;2.63;1.10;;;17.40;70.10;;;;;;5017886;28;20186;-68
2022/11/24 04:27:54;;;;;;;1.80;1.10;;;17.40;70.10;;;;;;5017625;28;20210;-68
2022/11/24 04:30:22;;;;;;;1.08;0.98;;;17.40;70.10;;;;;;5017250;28;20203;-68
2022/11/24 04:32:49;;;;;;;2.72;1.55;;;17.40;70.10;;;;;;5033961;28;20186;-68
2022/11/24 04:35:14;;;;;;;1.58;1.08;;;17.40;70.10;;;;;;5017507;28;20199;-68
2022/11/24 04:37:40;;;;;;;1.35;1.10;;;17.40;70.10;;;;;;5017628;28;20713;-68
2022/11/24 04:40:09;;;;;;;1.55;1.02;;;17.40;70.10;;;;;;5017350;28;20219;-68
2022/11/24 04:42:35;;;;;;;0.98;0.85;;;17.40;70.10;;;;;;5017396;28;20183;-68
2022/11/24 04:45:01;;;;;;;3.25;1.30;;;17.40;70.10;;;;;;5017376;28;20183;-68
2022/11/24 04:47:27;;;;;;;2.30;1.23;;;17.40;70.10;;;;;;5017607;28;20187;-68
2022/11/24 04:49:53;;;;;;;1.63;1.00;;;17.40;70.10;;;;;;5034001;28;20276;-68
2022/11/24 04:52:22;;;;;;;1.33;1.00;;;17.40;70.10;;;;;;5034895;28;20766;-68
2022/11/24 04:54:48;;;;;;;1.58;1.00;;;17.40;70.90;;;;;;5017141;28;20199;-68
2022/11/24 04:57:18;;;;;;;2.30;1.08;;;17.40;70.10;;;;;;5016941;28;20210;-68
2022/11/24 04:59:44;;;;;;;1.42;1.05;;;17.40;70.10;;;;;;5017009;28;20190;-68
2022/11/24 05:02:10;;;;;;;0.88;0.80;;;17.40;70.10;;;;;;5016888;28;20564;-68
2022/11/24 05:04:36;;;;;;;1.38;1.13;;;17.40;70.10;;;;;;5033509;28;20184;-68
2022/11/24 05:07:02;;;;;;;1.38;1.10;;;17.40;70.10;;;;;;5017188;28;20191;-68
2022/11/24 05:09:27;;;;;;;1.13;1.02;;;17.40;70.10;;;;;;5017160;28;20187;-70
2022/11/24 05:11:53;;;;;;;1.02;0.93;;;17.40;70.10;;;;;;5032976;28;20298;-68
2022/11/24 05:14:19;;;;;;;1.23;1.00;;;17.40;70.10;;;;;;5016796;28;20182;-68
2022/11/24 05:16:45;;;;;;;1.67;0.90;;;17.40;70.10;;;;;;5033281;28;20203;-68
2022/11/24 05:19:11;;;;;;;1.30;1.02;;;17.40;70.10;;;;;;5016627;28;20190;-68
2022/11/24 05:21:37;;;;;;;1.13;0.90;;;17.40;70.10;;;;;;5032813;28;20675;-68
2022/11/24 05:24:03;;;;;;;1.38;1.17;;;17.40;70.10;;;;;;5016563;28;20187;-68
2022/11/24 05:26:29;;;;;;;1.27;0.90;;;17.40;70.10;;;;;;5015204;28;20215;-68
2022/11/24 05:28:55;;;;;;;1.25;0.88;;;17.40;70.10;;;;;;4999996;28;20221;-68
2022/11/24 05:31:21;;;;;;;1.17;1.08;;;17.40;70.10;;;;;;4999987;28;20203;-67
2022/11/24 05:33:46;;;;;;;0.88;0.80;;;17.40;70.10;;;;;;5016268;28;20188;-67
2022/11/24 05:36:51;;;;;;;1.77;0.90;;;17.40;70.10;;;;;;4999857;28;20179;-68
2022/11/24 05:38:58;;;;;;;1.35;0.80;;;17.40;70.10;;;;;;5016019;28;20249;-67
2022/11/24 05:41:24;;;;;;;1.35;1.00;;;17.40;70.10;;;;;;5032554;28;20238;-68
2022/11/24 05:43:50;;;;;;;1.58;0.90;;;17.40;70.10;;;;;;5032715;28;20229;-68
2022/11/24 05:46:15;;;;;;;0.98;0.90;;;17.40;70.10;;;;;;5033050;28;20245;-69
2022/11/24 05:48:41;;;;;;;1.40;0.90;;;17.40;70.10;;;;;;5032301;28;20218;-68
2022/11/24 05:51:07;;;;;;;1.30;1.00;;;17.40;70.10;;;;;;5015718;28;20314;-69
2022/11/24 05:53:33;;;;;;;1.38;0.80;;;17.40;70.10;;;;;;5033578;28;20179;-69
2022/11/24 05:56:02;;;;;;;1.88;0.95;;;17.40;70.10;;;;;;5016017;28;20183;-69
2022/11/24 05:58:28;;;;;;;1.20;1.00;;;17.40;70.10;;;;;;5033633;28;20218;-68
2022/11/24 06:00:54;;;;;;;1.00;0.80;;;17.40;70.10;;;;;;5033438;28;20199;-69
2022/11/24 06:03:20;;;;;;;1.45;1.00;;;17.40;70.10;;;;;;5016116;28;20206;-68
2022/11/24 06:05:46;;;;;;;0.80;0.80;;;17.40;70.10;;;;;;5015508;28;20569;-69
2022/11/24 06:08:13;;;;;;;1.10;0.93;;;17.40;70.10;;;;;;5032639;28;20274;-68
2022/11/24 06:10:38;;;;;;;1.05;0.70;;;17.40;70.10;;;;;;5015712;28;20210;-68
2022/11/24 06:13:07;;;;;;;1.20;0.80;;;17.40;70.10;;;;;;5015617;28;20187;-69
2022/11/24 06:15:35;;;;;;;1.17;0.80;;;17.40;70.10;;;;;;5015024;28;20657;-67
2022/11/24 06:18:01;;;;;;;1.38;0.82;;;17.40;70.10;;;;;;5026811;28;20219;-69
2022/11/24 06:20:27;;;;;;;2.63;0.77;;;17.40;70.30;;;;;;5031203;28;20210;-68
2022/11/24 06:22:52;;;;;;;2.22;1.08;;;17.40;70.10;;;;;;5031487;28;20187;-69
2022/11/24 06:25:18;;;;;;;1.83;0.80;;;17.40;70.40;;;;;;5032188;28;20179;-68
2022/11/24 06:27:44;;;;;;;3.03;1.00;;;17.40;70.30;;;;;;5031494;28;20264;-69
2022/11/24 06:30:11;;;;;;;1.10;1.00;;;17.40;70.30;;;;;;5031302;28;20209;-68
2022/11/24 06:32:38;;;;;;;1.73;0.95;;;17.40;70.40;;;;;;5030461;28;20211;-68
2022/11/24 06:35:05;;;;;;;1.23;0.90;;;17.40;70.30;;;;;;5030597;28;20194;-68
2022/11/24 06:37:31;;;;;;;2.13;1.08;;;17.40;70.20;;;;;;5029271;28;20207;-68
2022/11/24 06:39:56;;;;;;;1.30;0.80;;;17.40;70.10;;;;;;5029795;28;20253;-69
2022/11/24 06:42:22;;;;;;;1.73;1.17;;;17.40;70.10;;;;;;5029652;28;20183;-68
2022/11/24 06:44:48;;;;;;;2.63;1.08;;;17.40;70.10;;;;;;5029640;28;20183;-68
2022/11/24 06:47:14;;;;;;;2.55;1.17;;;17.40;70.20;;;;;;5029737;28;20197;-68
2022/11/24 06:49:40;;;;;;;1.92;1.20;;;17.40;70.20;;;;;;5013950;28;20277;-68
2022/11/24 06:52:06;;;;;;;1.88;0.93;;;17.40;70.10;;;;;;5005782;28;20279;-68
2022/11/24 06:54:32;;;;;;;1.73;1.02;;;17.40;70.10;;;;;;4994928;28;20183;-68
2022/11/24 06:56:59;;;;;;;1.17;0.80;;;17.40;70.10;;;;;;4994928;28;20218;-68
2022/11/24 06:59:25;;;;;;;1.83;1.15;;;17.40;70.10;;;;;;4994999;28;20192;-68
2022/11/24 07:01:52;;;;;;;2.22;1.10;;;17.40;70.20;;;;;;4994468;28;20199;-68
2022/11/24 07:04:18;;;;;;;1.30;0.80;;;17.40;70.10;;;;;;5012170;28;20226;-68
2022/11/24 07:06:44;;;;;;;1.13;0.82;;;17.40;70.30;;;;;;4994850;28;20190;-68
2022/11/24 07:09:12;;;;;;;2.05;1.20;;;17.40;70.40;;;;;;4978473;28;20230;-68
2022/11/24 07:11:39;;;;;;;1.83;0.90;;;17.40;70.30;;;;;;4978227;28;20207;-68
2022/11/24 07:14:05;;;;;;;1.52;1.00;;;17.40;70.30;;;;;;4978373;28;20613;-68
2022/11/24 07:16:32;;;;;;;1.83;1.13;;;17.40;70.10;;;;;;4980846;28;20192;-68
2022/11/24 07:18:58;;;;;;;2.30;1.00;;;17.40;70.40;;;;;;4978434;28;20210;-68
2022/11/24 07:21:25;;;;;;;1.92;1.05;;;17.40;70.30;;;;;;4978434;28;20215;-69
2022/11/24 07:23:53;;;;;;;2.00;1.00;;;17.40;70.30;;;;;;5012268;28;20180;-68
2022/11/24 07:26:21;;;;;;;2.55;1.20;;;17.40;70.30;;;;;;4994623;28;20194;-68
2022/11/24 07:28:47;;;;;;;2.80;1.20;;;17.40;70.30;;;;;;4978371;28;20246;-68
2022/11/24 07:31:17;;;;;;;3.20;1.23;;;17.40;70.30;;;;;;4978359;28;20204;-68
2022/11/24 07:33:52;;;;;;;4.75;1.13;;;17.40;70.30;;;;;;4978889;28;20245;-68
2022/11/24 07:36:18;;;;;;;1.35;0.95;;;17.40;70.30;;;;;;4994409;28;20191;-68
2022/11/24 07:38:44;;;;;;;2.33;1.25;;;17.40;70.40;;;;;;4994485;28;20247;-68
2022/11/24 07:41:13;;;;;;;1.75;1.00;;;17.40;70.30;;;;;;4993964;28;20210;-68
2022/11/24 07:43:39;;;;;;;2.67;1.20;;;17.40;70.20;;;;;;4993126;28;20234;-70
2022/11/24 07:46:10;;;;;;;1.15;0.90;;;17.40;70.40;;;;;;5031648;28;20178;-69
2022/11/24 07:48:35;;;;;;;2.05;0.93;;;17.40;70.30;;;;;;5014407;28;20210;-69
2022/11/24 07:51:03;;;;;;;3.35;0.98;;;17.40;70.40;;;;;;5034010;28;20219;-68
2022/11/24 07:53:30;;;;;;;3.85;1.38;;;17.40;70.20;;;;;;5017809;28;20183;-68
2022/11/24 07:55:59;;;;;;;2.67;1.23;;;17.40;70.40;;;;;;5034412;28;20187;-68
2022/11/24 07:58:28;;;;;;;2.10;0.90;;;17.40;70.40;;;;;;5034339;28;20210;-68
2022/11/24 08:00:54;;;;;;;2.60;1.10;;;17.40;70.30;;;;;;5034005;28;20222;-68
2022/11/24 08:03:20;;;;;;;1.85;1.13;;;17.40;70.40;;;;;;5035397;28;20187;-68
2022/11/24 08:05:54;;;;;;;2.78;1.30;;;17.40;70.40;;;;;;5034065;28;20187;-68
2022/11/24 08:08:21;;;;;;;2.40;1.40;;;17.40;70.30;;;;;;5034011;28;20198;-68
2022/11/24 08:10:47;;;;;;;2.25;0.90;;;17.40;70.50;;;;;;5033392;28;20711;-68
2022/11/24 08:13:12;;;;;;;2.55;0.88;;;17.40;70.40;;;;;;5017631;28;20280;-68
2022/11/24 08:15:38;;;;;;;3.30;1.30;;;17.40;70.40;;;;;;5017509;28;20191;-68
2022/11/24 08:18:04;;;;;;;2.38;1.35;;;17.40;70.40;;;;;;5017442;28;20586;-68
2022/11/24 08:20:30;;;;;;;3.38;1.38;;;17.40;70.40;;;;;;5017045;28;20227;-68
2022/11/24 08:22:59;;;;;;;1.80;1.25;;;17.40;70.50;;;;;;5017212;28;20618;-68
2022/11/24 08:25:31;;;;;;;1.88;1.15;;;17.40;70.50;;;;;;5017372;28;20243;-69
2022/11/24 08:28:01;;;;;;;2.25;1.33;;;17.40;70.40;;;;;;5035141;28;20215;-68
2022/11/24 08:30:28;;;;;;;1.55;1.00;;;17.50;70.50;;;;;;5016956;28;20242;-68
2022/11/24 08:32:57;;;;;;;2.50;1.33;;;17.50;70.50;;;;;;5017047;28;20190;-68
2022/11/24 08:35:22;;;;;;;1.65;1.00;;;17.50;70.50;;;;;;5017319;28;20187;-68
2022/11/24 08:37:48;;;;;;;2.97;1.30;;;17.50;70.60;;;;;;5034748;28;20213;-68
2022/11/24 08:40:14;;;;;;;2.53;1.10;;;17.50;70.60;;;;;;5016998;28;20265;-68
2022/11/24 08:42:40;;;;;;;2.72;1.20;;;17.50;70.50;;;;;;5016630;28;20191;-68
2022/11/24 08:45:06;;;;;;;3.05;1.30;;;17.50;70.60;;;;;;5033395;28;20241;-68
2022/11/24 08:47:32;;;;;;;2.90;1.40;;;17.50;70.60;;;;;;5016726;28;20187;-68
2022/11/24 08:49:58;;;;;;;2.33;1.20;;;17.50;71.40;;;;;;5044159;22;20203;-67
2022/11/24 08:52:23;;;;;;;2.22;1.08;;;17.40;70.50;;;;;;5055375;28;20228;-69
2022/11/24 08:54:49;;;;;;;1.33;0.93;;;17.50;70.60;;;;;;5039137;28;20185;-69
2022/11/24 08:57:15;;;;;;;3.92;0.93;;;17.40;70.50;;;;;;5073113;28;20222;-69
2022/11/24 08:59:41;;;;;;;2.65;1.17;;;17.50;70.60;;;;;;5039473;28;20178;-69
2022/11/24 09:02:11;;;;;;;2.28;0.90;;;17.50;70.60;;;;;;5036301;28;20206;-69
2022/11/24 09:04:38;;;;;;;3.53;1.08;;;17.50;70.60;;;;;;5036614;28;20183;-69
2022/11/24 09:07:04;;;;;;;3.30;1.17;;;17.50;70.60;;;;;;5054114;28;20224;-69
2022/11/24 09:09:30;;;;;;;1.20;1.00;;;17.50;70.70;;;;;;5052888;28;20231;-69
2022/11/24 09:11:56;;;;;;;2.58;1.40;;;17.50;70.70;;;;;;5052570;28;20198;-69
2022/11/24 09:14:21;;;;;;;2.42;1.00;;;17.40;70.60;;;;;;5052796;28;20604;-69
2022/11/24 09:16:47;;;;;;;2.35;1.10;;;17.50;70.80;;;;;;5036098;28;20218;-69
2022/11/24 09:19:13;;;;;;;1.95;1.30;;;17.50;70.70;;;;;;5019655;28;20179;-69
2022/11/24 09:21:39;;;;;;;2.92;0.95;;;17.50;70.70;;;;;;5050092;28;20206;-69
2022/11/24 09:24:06;;;;;;;2.50;1.20;;;17.50;70.70;;;;;;5035195;28;20190;-69
2022/11/24 09:26:35;;;;;;;2.55;1.20;;;17.50;70.70;;;;;;5052510;28;20197;-69
2022/11/24 09:29:05;;;;;;;2.20;1.20;;;17.50;70.60;;;;;;5035907;28;20193;-69
2022/11/24 09:31:34;;;;;;;2.28;1.00;;;17.50;70.60;;;;;;5035762;28;20203;-69
2022/11/24 09:34:04;;;;;;;2.25;1.08;;;17.50;70.70;;;;;;5053666;28;20238;-70
2022/11/24 09:36:30;;;;;;;1.00;0.90;;;17.50;70.70;;;;;;5051993;28;20206;-69
2022/11/24 09:38:56;;;;;;;1.88;1.10;;;17.50;70.60;;;;;;5052123;28;20187;-69
2022/11/24 09:41:32;;;;;;;1.83;1.10;;;17.50;70.50;;;;;;5035757;28;20580;-69
2022/11/24 09:44:23;;;;;;;1.35;0.88;;;17.50;70.50;;;;;;5053471;28;20193;-69
2022/11/24 09:47:17;;;;;;;1.30;0.82;;;17.50;70.60;;;;;;5035712;28;20198;-69
2022/11/24 09:49:56;;;;;;;2.55;1.00;;;17.50;70.60;;;;;;5052132;28;20190;-69
2022/11/24 09:52:42;;;;;;;1.08;0.98;;;17.50;70.60;;;;;;5019050;28;20198;-69
2022/11/24 09:55:48;;;;;;;1.45;0.70;;;17.50;70.60;;;;;;5053226;28;20228;-69
2022/11/24 09:58:44;;;;;;;0.98;0.88;;;17.50;70.50;;;;;;5018977;28;20288;-69
2022/11/24 10:01:21;;;;;;;1.88;1.00;;;17.50;70.60;;;;;;5030010;28;20302;-69
2022/11/24 10:03:52;;;;;;;1.63;1.00;;;17.50;70.50;;;;;;5053127;28;20220;-69
2022/11/24 10:06:22;;;;;;;1.38;1.13;;;17.60;70.60;;;;;;5051754;28;20217;-69
2022/11/24 10:09:24;;;;;;;1.20;0.88;;;17.60;70.50;;;;;;5035161;28;20214;-69
2022/11/24 10:12:21;;;;;;;1.50;0.73;;;17.50;70.50;;;;;;5034234;28;20213;-69
2022/11/24 10:15:33;;;;;;;1.65;1.10;;;17.50;70.50;;;;;;5052848;28;20182;-69
2022/11/24 10:18:16;;;;;;;1.25;0.70;;;17.60;70.60;;;;;;5034009;28;20259;-69
2022/11/24 10:21:17;;;;;;;1.45;0.82;;;17.50;70.60;;;;;;5034801;28;20267;-68
2022/11/24 10:24:17;;;;;;;1.00;0.90;;;17.50;70.50;;;;;;5018478;28;20178;-69
2022/11/24 10:27:16;;;;;;;1.58;0.70;;;17.60;70.70;;;;;;5034803;28;20248;-69
2022/11/24 10:29:43;;;;;;;0.77;0.73;;;17.50;70.60;;;;;;5018312;28;20186;-69
2022/11/24 10:32:28;;;;;;;1.23;0.60;;;17.50;70.70;;;;;;5034496;28;20194;-69
2022/11/24 10:35:11;;;;;;;1.75;0.80;;;17.60;70.60;;;;;;5051216;28;20189;-69
2022/11/24 10:37:52;;;;;;;1.60;0.70;;;17.60;70.70;;;;;;5034627;28;20265;-69
2022/11/24 10:40:38;;;;;;;1.05;0.70;;;17.60;70.70;;;;;;5018198;28;20230;-69
2022/11/24 10:43:09;;;;;;;1.58;0.70;;;17.60;70.70;;;;;;5034562;28;20669;-69
2022/11/24 10:45:36;;;;;;;0.82;0.70;;;17.60;70.60;;;;;;5034533;28;20241;-70
2022/11/24 10:48:17;;;;;;;0.60;0.60;;;17.60;70.70;;;;;;5034527;28;20193;-69
2022/11/24 10:50:43;;;;;;;1.55;1.08;;;17.60;70.70;;;;;;5052469;28;20209;-69
2022/11/24 10:53:18;;;;;;;2.25;0.80;;;17.60;70.60;;;;;;5018381;28;20217;-69
2022/11/24 10:55:55;;;;;;;1.65;0.75;;;17.70;70.80;;;;;;5034656;28;20178;-69
2022/11/24 10:58:30;;;;;;;1.23;0.65;;;17.60;70.60;;;;;;5034566;28;20222;-69
2022/11/24 11:01:00;;;;;;;0.98;0.70;;;17.60;70.50;;;;;;5018016;28;20233;-69
2022/11/24 11:03:45;;;;;;;1.15;0.75;;;17.70;70.70;;;;;;5052443;28;20173;-69
2022/11/24 11:06:19;;;;;;;1.00;0.90;;;17.60;70.60;;;;;;5034893;28;20171;-70
2022/11/24 11:08:45;;;;;;;0.98;0.80;;;17.60;70.70;;;;;;5034479;28;20193;-69
2022/11/24 11:11:28;;;;;;;0.90;0.68;;;17.70;70.90;;;;;;5050870;28;20206;-69
2022/11/24 11:14:00;;;;;;;1.48;0.88;;;17.70;70.80;;;;;;5052379;28;20179;-69
2022/11/24 11:16:42;;;;;;;1.77;0.70;;;17.70;70.90;;;;;;5034473;28;20227;-69
2022/11/24 11:19:38;;;;;;;1.67;0.88;;;17.60;70.70;;;;;;5050464;28;20267;-69
2022/11/24 11:22:28;;;;;;;0.73;0.57;;;17.70;70.90;;;;;;5044479;28;20214;-69
2022/11/24 11:25:21;;;;;;;0.70;0.70;;;17.70;70.90;;;;;;5034372;28;20193;-69
2022/11/24 11:27:47;;;;;;;1.33;0.73;;;17.70;70.90;;;;;;5021734;28;20194;-69
2022/11/24 11:30:23;;;;;;;1.08;0.60;;;17.70;71.00;;;;;;5034346;28;20206;-70
2022/11/24 11:32:54;;;;;;;2.53;1.25;;;17.60;70.90;;;;;;5017637;28;20200;-70
2022/11/24 11:35:25;;;;;;;0.82;0.60;;;17.70;71.00;;;;;;5034509;28;20182;-70
2022/11/24 11:37:55;;;;;;;0.82;0.73;;;17.60;70.90;;;;;;5052059;28;20212;-70
2022/11/24 11:40:27;;;;;;;1.02;0.60;;;17.70;70.90;;;;;;5050907;28;20220;-70
2022/11/24 11:43:03;;;;;;;1.27;0.80;;;17.70;71.00;;;;;;5033997;28;20247;-69
2022/11/24 11:45:37;;;;;;;1.05;0.75;;;17.70;71.10;;;;;;5031234;28;20183;-68
2022/11/24 11:48:02;;;;;;;0.90;0.60;;;17.70;71.10;;;;;;5032097;28;20167;-69
2022/11/24 11:50:46;;;;;;;1.52;0.80;;;17.70;71.10;;;;;;5014325;28;20637;-69
2022/11/24 11:53:33;;;;;;;1.58;0.70;;;17.70;71.10;;;;;;5014860;28;20251;-70
2022/11/24 11:56:05;;;;;;;2.05;0.70;;;17.70;71.20;;;;;;5014125;28;20187;-70
2022/11/24 11:59:09;;;;;;;0.68;0.68;;;17.70;71.20;;;;;;5032000;28;20195;-69
2022/11/24 12:02:19;;;;;;;0.75;0.68;;;17.70;71.00;;;;;;4997690;28;20211;-69
2022/11/24 12:04:55;;;;;;;1.63;0.77;;;17.70;71.10;;;;;;4997952;28;20187;-69
2022/11/24 12:07:51;;;;;;;1.10;0.50;;;17.70;71.20;;;;;;5031980;28;20251;-70
2022/11/24 12:10:37;;;;;;;1.40;0.68;;;17.70;71.10;;;;;;5014172;28;20211;-70
2022/11/24 12:13:22;;;;;;;0.60;0.60;;;17.70;71.10;;;;;;5030672;28;20557;-69
2022/11/24 12:15:52;;;;;;;2.35;0.70;;;17.70;71.10;;;;;;5014531;28;20191;-69
2022/11/24 12:18:45;;;;;;;1.60;0.90;;;17.70;71.10;;;;;;4997730;28;20215;-70
2022/11/24 12:21:42;;;;;;;1.02;0.60;;;17.70;71.20;;;;;;5031752;28;20200;-70
2022/11/24 12:24:20;;;;;;;2.08;0.95;;;17.70;71.10;;;;;;4997946;28;20188;-70
2022/11/24 12:26:55;;;;;;;1.55;1.00;;;17.70;71.10;;;;;;4998087;28;20266;-69
2022/11/24 12:29:49;;;;;;;0.88;0.57;;;17.70;71.10;;;;;;4997904;28;20183;-70
2022/11/24 12:32:52;;;;;;;1.35;0.70;;;17.70;71.20;;;;;;5030334;28;20195;-69
2022/11/24 12:35:36;;;;;;;2.08;0.80;;;17.70;71.20;;;;;;5024201;28;20177;-69
2022/11/24 12:38:35;;;;;;;0.98;0.70;;;17.70;71.30;;;;;;5037615;28;20214;-70
2022/11/24 12:41:22;;;;;;;1.40;0.90;;;17.70;71.00;;;;;;5053564;28;20214;-69
2022/11/24 12:43:55;;;;;;;2.97;0.80;;;17.70;71.10;;;;;;5030257;28;20191;-70
2022/11/24 12:46:42;;;;;;;1.42;0.95;;;17.70;71.20;;;;;;5037101;28;20186;-70
2022/11/24 12:49:28;;;;;;;2.42;0.90;;;17.70;71.20;;;;;;5017283;28;20183;-69
2022/11/24 12:52:04;;;;;;;1.88;0.90;;;17.70;71.20;;;;;;5016974;28;20215;-69
2022/11/24 12:54:39;;;;;;;1.67;0.60;;;17.70;71.10;;;;;;5017549;28;20782;-69
2022/11/24 12:57:16;;;;;;;3.13;1.10;;;17.70;71.10;;;;;;5017139;28;20333;-70
2022/11/24 13:00:14;;;;;;;2.65;0.88;;;17.70;71.10;;;;;;5033856;28;20195;-70
2022/11/24 13:03:17;;;;;;;1.35;0.93;;;17.70;71.00;;;;;;5000451;28;20643;-69
2022/11/24 13:06:01;;;;;;;1.45;0.80;;;17.70;71.20;;;;;;5052128;28;20196;-70
2022/11/24 13:08:28;;;;;;;2.05;0.80;;;17.70;71.30;;;;;;5033684;28;20214;-70
2022/11/24 13:11:20;;;;;;;1.60;0.70;;;17.70;72.10;;;;;;5007953;28;20263;-69
2022/11/24 13:14:15;;;;;;;1.30;0.77;;;17.70;71.10;;;;;;5034179;28;20279;-70